Byars, Oklahoma
Current Conditions -  °F | °C
As of 3:35 PM on Friday 24 Oct 2014 (Local Time) from KPVJ Reporting Station
Clear Clear  
Wind Chill: 82°   Ceiling: Unl
Heat Index: 83°   Visibility: 10mi
Dew Point: 62°   Wind: 12mph
Humidity: 51%   Direction: 200°SSW
Pressure: 30.05"   Gusts: 18mph
Location:  34.87°N, 97.05°W
Report Text: KPVJ 242035Z AUTO 20010G16KT 10SM CLR 28/17 A3005 RMK AO2 T02780168
Loading
Personal Weather Stations






























Interactive Weather Map
Tropical Storm Tracking
New forecast layout! Learn more

10-Day Weather Forecast

Advertisements
Track Severe Weather on mobile